Time;durP1;ratioP1;P1;durP2;ratioP2;P2;SDS_P1;SDS_P2;PMS_P1;PMS_P2;Temp;Humidity;BMP_temperature;BMP_pressure;BME280_temperature;BME280_humidity;BME280_pressure;Samples;Min_cycle;Max_cycle;Signal;HPM_P1;HPM_P2
2023/12/14 00:01:17;;;;;;;9.63;7.60;;;;;;;5.54;100.00;100997.72;5196084;27;20034;-78
2023/12/14 00:03:44;;;;;;;12.23;7.22;;;;;;;5.53;100.00;101006.03;5198798;27;20765;-78
2023/12/14 00:06:11;;;;;;;13.32;8.02;;;;;;;5.50;100.00;101012.84;5179180;27;20092;-78
2023/12/14 00:08:38;;;;;;;13.80;7.57;;;;;;;5.47;100.00;101021.56;5174840;27;20042;-78
2023/12/14 00:11:07;;;;;;;11.10;7.82;;;;;;;5.46;100.00;101025.34;5167792;27;20047;-78
2023/12/14 00:13:33;;;;;;;11.60;8.45;;;;;;;5.47;100.00;101034.75;5168405;27;20521;-78
2023/12/14 00:16:00;;;;;;;13.52;8.55;;;;;;;5.47;100.00;101042.69;5162581;27;20039;-78
2023/12/14 00:18:27;;;;;;;12.25;7.38;;;;;;;5.47;100.00;101039.28;5185491;27;20072;-78
2023/12/14 00:20:54;;;;;;;14.02;8.00;;;;;;;5.45;100.00;101049.50;5147587;27;20042;-78
2023/12/14 00:23:21;;;;;;;10.35;8.68;;;;;;;5.43;100.00;101052.53;5184792;27;20042;-78
2023/12/14 00:25:48;;;;;;;12.73;9.23;;;;;;;5.38;100.00;101052.22;5166342;27;20054;-78
2023/12/14 00:28:14;;;;;;;8.85;7.45;;;;;;;5.35;100.00;101062.44;5183543;27;20892;-78
2023/12/14 00:30:41;;;;;;;9.77;7.32;;;;;;;5.34;100.00;101065.47;5184510;27;20099;-78
2023/12/14 00:33:08;;;;;;;10.63;8.57;;;;;;;5.35;100.00;101072.25;5184493;27;20491;-78
2023/12/14 00:35:34;;;;;;;8.75;7.85;;;;;;;5.34;100.00;101073.38;5184707;27;20047;-78
2023/12/14 00:38:01;;;;;;;10.88;7.60;;;;;;;5.35;100.00;101074.88;5180213;27;20111;-78
2023/12/14 00:40:27;;;;;;;9.15;7.03;;;;;;;5.37;100.00;101080.53;5165363;27;20049;-78
2023/12/14 00:42:54;;;;;;;9.65;7.38;;;;;;;5.38;100.00;101083.91;5165491;27;20091;-78
2023/12/14 00:45:20;;;;;;;8.32;7.35;;;;;;;5.35;100.00;101088.84;5184637;27;20485;-78
2023/12/14 00:47:47;;;;;;;8.73;7.63;;;;;;;5.39;100.00;101072.22;5166207;27;20057;-78
2023/12/14 00:50:15;;;;;;;9.80;7.30;;;;;;;5.40;100.00;101073.69;5184483;27;20571;-78
2023/12/14 00:52:41;;;;;;;11.93;7.75;;;;;;;5.38;100.00;101083.91;5181382;27;20493;-78
2023/12/14 00:55:08;;;;;;;8.18;7.20;;;;;;;5.33;100.00;101082.44;5166543;27;20478;-78
2023/12/14 00:57:34;;;;;;;9.15;7.40;;;;;;;5.31;100.00;101090.75;5189680;27;20950;-78
2023/12/14 01:00:01;;;;;;;8.88;7.97;;;;;;;5.28;100.00;101088.16;5190837;27;20123;-78
2023/12/14 01:02:27;;;;;;;8.80;6.75;;;;;;;5.28;100.00;101106.63;5186639;27;20836;-78
2023/12/14 01:04:54;;;;;;;9.90;7.93;;;;;;;5.25;100.00;101110.81;5166318;27;20062;-78
2023/12/14 01:07:21;;;;;;;10.10;7.90;;;;;;;5.27;100.00;101113.81;5165784;27;20638;-78
2023/12/14 01:09:47;;;;;;;10.20;7.30;;;;;;;5.26;100.00;101122.88;5145935;27;20053;-78
2023/12/14 01:12:14;;;;;;;8.40;7.50;;;;;;;5.23;100.00;101130.81;5163034;27;20061;-78
2023/12/14 01:14:40;;;;;;;9.32;7.43;;;;;;;5.22;100.00;101131.97;5167024;27;20095;-78
2023/12/14 01:17:07;;;;;;;9.70;7.80;;;;;;;5.21;100.00;101138.38;5150041;27;20133;-78
2023/12/14 01:19:33;;;;;;;9.30;7.22;;;;;;;5.21;100.00;101143.66;5168943;27;20050;-78
2023/12/14 01:22:00;;;;;;;9.68;7.45;;;;;;;5.17;100.00;101142.97;5169563;27;20129;-79
2023/12/14 01:24:26;;;;;;;9.90;7.43;;;;;;;5.20;100.00;101155.38;5169642;27;20039;-78
2023/12/14 01:26:54;;;;;;;11.23;7.95;;;;;;;5.20;100.00;101150.09;5152815;27;20412;-78
2023/12/14 01:29:21;;;;;;;8.70;7.13;;;;;;;5.19;100.00;101149.34;5188630;27;20100;-78
2023/12/14 01:31:48;;;;;;;8.88;7.20;;;;;;;5.21;100.00;101154.97;5188765;27;20047;-78
2023/12/14 01:34:15;;;;;;;8.77;7.03;;;;;;;5.22;100.00;101158.34;5168615;27;20049;-78
2023/12/14 01:36:42;;;;;;;10.98;6.85;;;;;;;5.20;100.00;101164.03;5188777;27;20176;-78
2023/12/14 01:39:08;;;;;;;9.80;7.20;;;;;;;5.21;100.00;101160.25;5186510;27;20047;-78
2023/12/14 01:41:35;;;;;;;7.53;6.82;;;;;;;5.18;100.00;101161.06;5187682;27;20099;-78
2023/12/14 01:44:02;;;;;;;9.63;7.28;;;;;;;5.19;100.00;101167.09;5151417;27;20047;-78
2023/12/14 01:46:28;;;;;;;9.90;7.45;;;;;;;5.20;100.00;101174.59;5168993;27;20477;-78
2023/12/14 01:48:55;;;;;;;9.32;7.63;;;;;;;5.20;100.00;101179.16;5187984;27;20038;-78
2023/12/14 01:51:21;;;;;;;10.30;7.35;;;;;;;5.17;100.00;101190.47;5188114;27;20038;-79
2023/12/14 01:53:48;;;;;;;8.60;7.68;;;;;;;5.15;100.00;101203.31;5170999;27;20042;-78
2023/12/14 01:56:17;;;;;;;8.23;7.10;;;;;;;5.14;100.00;101205.22;5168756;27;20058;-78
2023/12/14 01:58:44;;;;;;;8.82;7.53;;;;;;;5.11;100.00;101199.94;5187400;27;20055;-78
2023/12/14 02:01:28;;;;;;;8.82;7.57;;;;;;;5.13;100.00;101210.88;5185139;27;20042;-78
2023/12/14 02:03:55;;;;;;;8.95;6.93;;;;;;;5.13;100.00;101216.91;5168033;27;20039;-78
2023/12/14 02:06:21;;;;;;;9.43;7.80;;;;;;;5.09;100.00;101213.53;5188702;27;20039;-78
2023/12/14 02:08:48;;;;;;;9.65;7.38;;;;;;;5.08;100.00;101216.56;5189346;27;20054;-78
2023/12/14 02:11:14;;;;;;;9.95;7.78;;;;;;;5.10;100.00;101222.22;5168510;27;20049;-78
2023/12/14 02:13:41;;;;;;;8.38;7.25;;;;;;;5.09;100.00;101228.63;5167386;27;20046;-78
2023/12/14 02:16:09;;;;;;;10.48;7.53;;;;;;;5.07;100.00;101236.94;5167839;27;20047;-78
2023/12/14 02:18:37;;;;;;;9.18;7.13;;;;;;;5.08;100.00;101237.69;5182948;27;20046;-78
2023/12/14 02:21:04;;;;;;;7.88;7.07;;;;;;;5.10;100.00;101243.31;5182311;27;20043;-78
2023/12/14 02:23:30;;;;;;;10.45;7.10;;;;;;;5.08;100.00;101248.22;5180893;27;20057;-78
2023/12/14 02:25:57;;;;;;;8.45;7.55;;;;;;;5.08;100.00;101250.88;5162533;27;20031;-78
2023/12/14 02:28:24;;;;;;;8.95;7.53;;;;;;;5.09;100.00;101257.66;5163746;27;20132;-78
2023/12/14 02:30:50;;;;;;;8.73;7.18;;;;;;;5.09;100.00;101266.31;5182169;27;20043;-78
2023/12/14 02:33:17;;;;;;;9.60;7.55;;;;;;;5.09;100.00;101281.41;5180887;27;20144;-78
2023/12/14 02:35:43;;;;;;;9.40;7.35;;;;;;;5.07;100.00;101283.69;5162071;27;20875;-77
2023/12/14 02:38:10;;;;;;;9.73;7.53;;;;;;;5.06;100.00;101285.56;5181616;27;20074;-77
2023/12/14 02:40:37;;;;;;;9.85;8.00;;;;;;;5.05;100.00;101286.69;5161624;27;20129;-78
2023/12/14 02:43:03;;;;;;;9.18;7.78;;;;;;;5.07;100.00;101291.59;5162554;27;20125;-78
2023/12/14 02:45:30;;;;;;;11.40;8.45;;;;;;;5.06;100.00;101282.94;5179817;27;20042;-78
2023/12/14 02:47:56;;;;;;;9.48;7.68;;;;;;;5.07;100.00;101302.16;5181126;27;20592;-78
2023/12/14 02:50:23;;;;;;;8.55;7.65;;;;;;;5.05;100.00;101289.34;5161825;27;20130;-78
2023/12/14 02:52:50;;;;;;;8.73;7.80;;;;;;;5.06;100.00;101293.47;5180927;27;20112;-78
2023/12/14 02:55:16;;;;;;;10.45;7.68;;;;;;;5.07;100.00;101304.78;5161072;27;20047;-78
2023/12/14 02:57:44;;;;;;;9.18;7.88;;;;;;;5.07;100.00;101307.44;5162216;27;20046;-78
2023/12/14 03:00:12;;;;;;;8.25;7.45;;;;;;;5.06;100.00;101309.31;5144089;27;20537;-78
2023/12/14 03:02:38;;;;;;;8.15;7.22;;;;;;;5.05;100.00;101310.47;5162634;27;20042;-78
2023/12/14 03:05:05;;;;;;;9.82;7.60;;;;;;;5.05;100.00;101312.34;5181515;27;20039;-77
2023/12/14 03:07:36;;;;;;;8.13;7.20;;;;;;;5.03;100.00;101316.13;5180438;27;20039;-77
2023/12/14 03:10:03;;;;;;;10.82;7.30;;;;;;;5.02;100.00;101319.16;5162721;27;20043;-77
2023/12/14 03:12:30;;;;;;;8.60;7.45;;;;;;;5.01;100.00;101318.38;5165546;27;20050;-77
2023/12/14 03:14:56;;;;;;;12.40;8.18;;;;;;;5.01;100.00;101322.91;5149154;27;20055;-77
2023/12/14 03:17:23;;;;;;;8.75;7.60;;;;;;;4.99;100.00;101325.94;5146664;27;20043;-77
2023/12/14 03:19:50;;;;;;;10.70;8.15;;;;;;;5.00;100.00;101332.72;5162509;27;20049;-77
2023/12/14 03:22:16;;;;;;;8.70;7.60;;;;;;;4.97;100.00;101330.84;5181404;27;20050;-78
2023/12/14 03:24:43;;;;;;;8.35;7.45;;;;;;;4.97;100.00;101325.56;5180579;27;20096;-77
2023/12/14 03:27:09;;;;;;;8.75;7.72;;;;;;;4.98;100.00;101318.41;5143473;27;20031;-77
2023/12/14 03:29:36;;;;;;;9.52;7.70;;;;;;;4.99;100.00;101330.47;5162043;27;20074;-77
2023/12/14 03:32:03;;;;;;;8.93;7.95;;;;;;;4.97;100.00;101328.22;5162472;27;20050;-77
2023/12/14 03:34:29;;;;;;;9.70;7.65;;;;;;;4.99;100.00;101325.94;5180791;27;20915;-78
2023/12/14 03:36:56;;;;;;;11.05;8.20;;;;;;;5.00;100.00;101327.44;5161215;27;20039;-78
2023/12/14 03:39:22;;;;;;;10.38;8.27;;;;;;;5.00;100.00;101318.78;5180595;27;20045;-78
2023/12/14 03:41:49;;;;;;;11.63;8.27;;;;;;;5.00;100.00;101321.41;5164067;27;20061;-78
2023/12/14 03:44:16;;;;;;;11.20;8.38;;;;;;;5.01;100.00;101326.31;5184035;27;20035;-78
2023/12/14 03:46:42;;;;;;;9.60;7.82;;;;;;;5.01;100.00;101321.03;5168988;27;20081;-78
2023/12/14 03:49:09;;;;;;;10.07;8.10;;;;;;;5.03;100.00;101331.94;5168080;27;20129;-77
2023/12/14 03:51:35;;;;;;;11.77;8.00;;;;;;;5.01;100.00;101326.31;5181453;27;20051;-78
2023/12/14 03:54:02;;;;;;;12.57;8.57;;;;;;;5.01;100.00;101328.19;5179955;27;20050;-78
2023/12/14 03:56:28;;;;;;;14.05;8.73;;;;;;;5.03;100.00;101336.47;5160562;27;20510;-78
2023/12/14 03:58:57;;;;;;;11.45;8.55;;;;;;;5.03;100.00;101337.22;5177533;27;20035;-78
2023/12/14 04:01:23;;;;;;;10.27;8.50;;;;;;;5.06;100.00;101334.97;5179027;27;20066;-78
2023/12/14 04:03:50;;;;;;;11.18;8.57;;;;;;;5.03;100.00;101337.22;5179254;27;20125;-77
2023/12/14 04:06:16;;;;;;;12.10;8.40;;;;;;;4.99;100.00;101338.38;5180798;27;20023;-78
2023/12/14 04:08:43;;;;;;;10.48;8.27;;;;;;;4.95;100.00;101348.97;5180146;27;20038;-78
2023/12/14 04:11:09;;;;;;;13.50;8.65;;;;;;;4.93;100.00;101351.22;5179736;27;20078;-77
2023/12/14 04:13:37;;;;;;;10.38;8.38;;;;;;;4.93;100.00;101363.66;5179649;27;20151;-78
2023/12/14 04:16:04;;;;;;;11.68;8.95;;;;;;;4.92;100.00;101365.56;5180318;27;20037;-78
2023/12/14 04:18:30;;;;;;;15.48;8.25;;;;;;;4.92;100.00;101375.34;5180966;27;20049;-78
2023/12/14 04:20:57;;;;;;;12.48;8.00;;;;;;;4.91;100.00;101387.03;5183061;27;20128;-78
2023/12/14 04:23:24;;;;;;;11.32;7.82;;;;;;;4.89;100.00;101389.31;5183025;27;20131;-78
2023/12/14 04:25:50;;;;;;;11.00;7.13;;;;;;;4.90;100.00;101383.66;5183341;27;20027;-78
2023/12/14 04:28:17;;;;;;;11.85;8.25;;;;;;;4.92;100.00;101389.31;5146273;27;20047;-78
2023/12/14 04:30:43;;;;;;;10.27;7.45;;;;;;;4.94;100.00;101394.19;5181972;27;20130;-78
2023/12/14 04:33:11;;;;;;;9.95;7.97;;;;;;;4.90;100.00;101398.72;5146616;27;20439;-78
2023/12/14 04:35:38;;;;;;;9.88;7.45;;;;;;;4.89;100.00;101403.25;5145602;27;20133;-78
2023/12/14 04:38:04;;;;;;;10.30;7.20;;;;;;;4.87;100.00;101404.78;5146141;27;20043;-78
2023/12/14 04:40:32;;;;;;;10.85;7.25;;;;;;;4.86;100.00;101408.53;5182031;27;20039;-78
2023/12/14 04:42:59;;;;;;;10.95;6.72;;;;;;;4.84;100.00;101413.44;5163304;27;20038;-78
2023/12/14 04:45:26;;;;;;;8.45;6.57;;;;;;;4.82;100.00;101421.00;5163672;27;20468;-78
2023/12/14 04:47:53;;;;;;;9.65;6.60;;;;;;;4.82;100.00;101429.66;5182547;27;20119;-77
2023/12/14 04:50:20;;;;;;;8.32;6.80;;;;;;;4.80;100.00;101441.75;5144838;27;20043;-78
2023/12/14 04:52:48;;;;;;;7.35;6.13;;;;;;;4.79;100.00;101435.72;5162431;27;20058;-78
2023/12/14 04:55:14;;;;;;;6.95;6.10;;;;;;;4.77;100.00;101443.28;5181069;27;20104;-78
2023/12/14 04:57:41;;;;;;;8.15;6.60;;;;;;;4.77;100.00;101448.56;5162776;27;20414;-78
2023/12/14 05:00:08;;;;;;;7.78;6.93;;;;;;;4.79;100.00;101456.09;5182278;27;20784;-78
2023/12/14 05:02:34;;;;;;;8.48;6.40;;;;;;;4.81;100.00;101464.34;5162696;27;20055;-78
2023/12/14 05:05:02;;;;;;;9.10;6.38;;;;;;;4.81;100.00;101465.09;5181265;27;20047;-77
2023/12/14 05:07:30;;;;;;;8.27;6.85;;;;;;;4.81;100.00;101470.38;5161810;27;20531;-78
2023/12/14 05:09:57;;;;;;;8.20;6.47;;;;;;;4.82;100.00;101476.41;5179984;27;20501;-78
2023/12/14 05:12:25;;;;;;;7.95;6.38;;;;;;;4.79;100.00;101483.22;5160880;27;20038;-78
2023/12/14 05:14:52;;;;;;;9.23;6.10;;;;;;;4.79;100.00;101488.50;5180539;27;20043;-78
2023/12/14 05:17:19;;;;;;;8.02;6.32;;;;;;;4.78;100.00;101488.88;5160267;27;20050;-78
2023/12/14 05:19:46;;;;;;;8.18;6.57;;;;;;;4.77;100.00;101501.31;5162817;27;20042;-78
2023/12/14 05:22:13;;;;;;;9.20;6.38;;;;;;;4.77;100.00;101503.19;5180748;27;20046;-77
2023/12/14 05:24:39;;;;;;;6.90;6.18;;;;;;;4.78;100.00;101509.97;5161858;27;20544;-78
2023/12/14 05:27:06;;;;;;;8.82;5.95;;;;;;;4.78;100.00;101523.91;5162937;27;20047;-78
2023/12/14 05:29:33;;;;;;;7.97;6.22;;;;;;;4.78;100.00;101521.28;5161661;27;20098;-77
2023/12/14 05:31:59;;;;;;;11.07;6.28;;;;;;;4.80;100.00;101528.81;5179598;27;20043;-78
2023/12/14 05:34:26;;;;;;;11.55;6.47;;;;;;;4.76;100.00;101526.19;5179732;27;20055;-78
2023/12/14 05:36:53;;;;;;;9.75;5.95;;;;;;;4.73;100.00;101534.09;5180766;27;20047;-77
2023/12/14 05:39:19;;;;;;;6.63;5.63;;;;;;;4.72;100.00;101538.63;5180192;27;20062;-77
2023/12/14 05:41:46;;;;;;;6.13;5.57;;;;;;;4.72;100.00;101541.25;5179712;27;20031;-77
2023/12/14 05:44:13;;;;;;;7.03;6.13;;;;;;;4.71;100.00;101544.28;5180639;27;20047;-77
2023/12/14 05:46:40;;;;;;;8.90;5.88;;;;;;;4.72;100.00;101537.88;5177068;27;20039;-77
2023/12/14 05:49:06;;;;;;;9.00;5.90;;;;;;;4.71;100.00;101544.28;5178865;27;20804;-77
2023/12/14 05:51:33;;;;;;;7.03;5.60;;;;;;;4.71;100.00;101546.91;5177196;27;20043;-78
2023/12/14 05:54:00;;;;;;;9.50;6.30;;;;;;;4.70;100.00;101551.44;5179916;27;20074;-78
2023/12/14 05:56:26;;;;;;;7.38;5.93;;;;;;;4.69;100.00;101549.94;5162130;27;20638;-77
2023/12/14 05:58:53;;;;;;;7.97;5.57;;;;;;;4.67;100.00;101560.09;5181801;27;20047;-78
2023/12/14 06:01:20;;;;;;;8.50;5.57;;;;;;;4.65;100.00;101560.47;5180240;27;20027;-77
2023/12/14 06:03:46;;;;;;;8.68;5.63;;;;;;;4.60;100.00;101568.78;5179223;27;20048;-78
2023/12/14 06:06:14;;;;;;;7.80;5.80;;;;;;;4.59;100.00;101584.97;5179244;27;20043;-78
2023/12/14 06:08:41;;;;;;;6.15;5.55;;;;;;;4.55;100.00;101578.94;5140086;27;20059;-78
2023/12/14 06:11:08;;;;;;;6.28;5.35;;;;;;;4.53;100.00;101589.09;5157188;27;20066;-78
2023/12/14 06:13:35;;;;;;;7.88;5.60;;;;;;;4.52;100.00;101590.22;5158346;27;20110;-78
2023/12/14 06:16:02;;;;;;;5.85;5.05;;;;;;;4.50;100.00;101584.59;5157565;27;20108;-78
2023/12/14 06:18:29;;;;;;;6.50;5.47;;;;;;;4.47;100.00;101590.59;5157467;27;20674;-77
2023/12/14 06:20:56;;;;;;;5.30;4.80;;;;;;;4.45;100.00;101596.25;5156225;27;20054;-77
2023/12/14 06:23:25;;;;;;;6.38;4.90;;;;;;;4.45;100.00;101590.97;5157782;27;20566;-77
2023/12/14 06:25:51;;;;;;;5.95;5.25;;;;;;;4.46;100.00;101604.91;5156227;27;20069;-78
2023/12/14 06:28:18;;;;;;;7.97;5.53;;;;;;;4.46;100.00;101610.94;5156570;27;20043;-78
2023/12/14 06:30:44;;;;;;;7.05;5.03;;;;;;;4.47;100.00;101616.97;5156551;27;20489;-77
2023/12/14 06:33:11;;;;;;;8.52;5.30;;;;;;;4.45;100.00;101621.88;5157337;27;20062;-77
2023/12/14 06:35:38;;;;;;;6.95;5.07;;;;;;;4.41;100.00;101634.28;5156574;27;20047;-77
2023/12/14 06:38:07;;;;;;;6.25;5.13;;;;;;;4.40;100.00;101636.19;5157490;27;20054;-77
2023/12/14 06:40:35;;;;;;;6.72;5.32;;;;;;;4.42;100.00;101643.72;5154906;27;20044;-77
2023/12/14 06:43:04;;;;;;;6.00;5.50;;;;;;;4.42;100.00;101648.97;5155513;27;20031;-77
2023/12/14 06:45:32;;;;;;;6.28;5.68;;;;;;;4.41;100.00;101661.41;5157800;27;20059;-78
2023/12/14 06:47:59;;;;;;;7.38;5.57;;;;;;;4.40;100.00;101659.91;5160806;27;20039;-78
2023/12/14 06:50:26;;;;;;;6.10;4.75;;;;;;;4.37;100.00;101657.28;5159706;27;20057;-78
2023/12/14 06:52:52;;;;;;;8.20;6.05;;;;;;;4.37;100.00;101665.19;5160390;27;20122;-78
2023/12/14 06:55:19;;;;;;;7.95;5.13;;;;;;;4.35;100.00;101668.97;5160574;27;20039;-78
2023/12/14 06:57:46;;;;;;;8.40;5.82;;;;;;;4.32;100.00;101669.69;5155623;27;20043;-77
2023/12/14 07:00:14;;;;;;;7.80;6.20;;;;;;;4.31;100.00;101683.25;5156005;27;20043;-77
2023/12/14 07:02:40;;;;;;;6.25;5.05;;;;;;;4.30;100.00;101681.75;5155289;27;20187;-77
2023/12/14 07:05:07;;;;;;;5.63;5.03;;;;;;;4.30;100.00;101690.41;5153493;27;20050;-77
2023/12/14 07:07:33;;;;;;;6.10;5.50;;;;;;;4.29;100.00;101688.91;5155339;27;20043;-77
2023/12/14 07:10:01;;;;;;;6.35;5.18;;;;;;;4.29;100.00;101702.06;5154044;27;20047;-78
2023/12/14 07:12:27;;;;;;;6.10;5.28;;;;;;;4.30;100.00;101708.88;5152371;27;20059;-77
2023/12/14 07:14:54;;;;;;;6.10;5.50;;;;;;;4.30;100.00;101716.78;5156044;27;20082;-78
2023/12/14 07:17:21;;;;;;;6.18;5.53;;;;;;;4.30;100.00;101719.41;5158403;27;20044;-77
2023/12/14 07:19:47;;;;;;;7.80;5.68;;;;;;;4.29;100.00;101714.50;5162031;27;20043;-78
2023/12/14 07:22:14;;;;;;;6.25;4.93;;;;;;;4.27;100.00;101725.41;5163309;27;20034;-78
2023/12/14 07:24:40;;;;;;;8.32;5.43;;;;;;;4.29;100.00;101722.41;5165680;27;20047;-78
2023/12/14 07:27:18;;;;;;;7.18;5.60;;;;;;;4.28;100.00;101732.19;5162965;27;20561;-77
2023/12/14 07:29:45;;;;;;;7.22;5.05;;;;;;;4.24;100.00;101730.69;5157050;27;20864;-78
2023/12/14 07:32:12;;;;;;;7.30;5.93;;;;;;;4.24;100.00;101739.34;5157481;27;20183;-77
2023/12/14 07:34:38;;;;;;;8.38;5.55;;;;;;;4.21;100.00;101736.69;5154678;27;20498;-77
2023/12/14 07:37:05;;;;;;;7.50;5.65;;;;;;;4.23;100.00;101742.34;5156138;27;20043;-77
2023/12/14 07:39:32;;;;;;;7.22;5.63;;;;;;;4.22;100.00;101740.84;5156299;27;20047;-77
2023/12/14 07:42:00;;;;;;;6.82;5.75;;;;;;;4.19;100.00;101749.47;5154061;27;20054;-77
2023/12/14 07:44:29;;;;;;;6.60;5.82;;;;;;;4.19;100.00;101752.13;5157224;27;20101;-78
2023/12/14 07:47:00;;;;;;;6.85;6.03;;;;;;;4.19;100.00;101758.16;5154764;27;20035;-77
2023/12/14 07:49:26;;;;;;;8.55;5.43;;;;;;;4.19;100.00;101754.75;5138392;27;20119;-78
2023/12/14 07:51:53;;;;;;;7.63;5.80;;;;;;;4.17;100.00;101757.75;5155860;27;20070;-76
2023/12/14 07:54:19;;;;;;;6.10;5.38;;;;;;;4.20;100.00;101767.56;5155856;27;20078;-77
2023/12/14 07:56:46;;;;;;;6.95;5.35;;;;;;;4.21;100.00;101769.06;5159308;27;20127;-77
2023/12/14 07:59:12;;;;;;;6.70;5.88;;;;;;;4.22;100.00;101772.47;5157570;27;20122;-77
2023/12/14 08:01:39;;;;;;;7.25;5.82;;;;;;;4.20;100.00;101772.84;5159782;27;20043;-78
2023/12/14 08:04:06;;;;;;;6.45;5.35;;;;;;;4.21;100.00;101771.72;5158547;27;20777;-77
2023/12/14 08:06:33;;;;;;;6.25;5.65;;;;;;;4.24;100.00;101775.47;5157187;27;20178;-76
2023/12/14 08:08:59;;;;;;;6.30;5.50;;;;;;;4.25;100.00;101782.28;5156239;27;20042;-76
2023/12/14 08:11:27;;;;;;;6.68;5.68;;;;;;;4.27;100.00;101780.03;5154375;27;20055;-76
2023/12/14 08:13:53;;;;;;;6.80;6.10;;;;;;;4.27;100.00;101782.66;5158449;27;20043;-78
2023/12/14 08:16:20;;;;;;;6.93;5.95;;;;;;;4.27;100.00;101788.69;5159624;27;20126;-77
2023/12/14 08:18:48;;;;;;;6.63;5.93;;;;;;;4.28;100.00;101787.56;5141387;27;20071;-77
2023/12/14 08:21:15;;;;;;;6.65;5.72;;;;;;;4.25;100.00;101790.94;5156464;27;20051;-77
2023/12/14 08:23:42;;;;;;;6.03;5.43;;;;;;;4.24;100.00;101799.22;5156310;27;20525;-77
2023/12/14 08:26:11;;;;;;;8.15;5.43;;;;;;;4.22;100.00;101807.47;5156184;27;20104;-77
2023/12/14 08:28:37;;;;;;;7.00;5.53;;;;;;;4.24;100.00;101821.06;5159849;27;20047;-78
2023/12/14 08:31:05;;;;;;;6.20;5.28;;;;;;;4.24;100.00;101818.41;5160153;27;20048;-77
2023/12/14 08:33:31;;;;;;;6.00;5.40;;;;;;;4.25;100.00;101816.53;5156352;27;20096;-76
2023/12/14 08:35:58;;;;;;;8.18;5.80;;;;;;;4.27;100.00;101820.31;5157663;27;20444;-77
2023/12/14 08:38:25;;;;;;;7.45;5.60;;;;;;;4.29;100.00;101818.06;5157070;27;20074;-77
2023/12/14 08:40:52;;;;;;;7.43;5.75;;;;;;;4.30;100.00;101821.47;5161131;27;20035;-79
2023/12/14 08:43:19;;;;;;;7.05;5.63;;;;;;;4.31;100.00;101829.00;5145682;27;20050;-79
2023/12/14 08:45:45;;;;;;;6.38;5.03;;;;;;;4.37;100.00;101831.28;5164153;27;20146;-78
2023/12/14 08:48:12;;;;;;;6.82;5.25;;;;;;;4.37;100.00;101833.91;5154603;27;20836;-78
2023/12/14 08:50:39;;;;;;;10.07;6.40;;;;;;;4.37;100.00;101842.59;5164574;27;20078;-78
2023/12/14 08:53:06;;;;;;;8.27;5.82;;;;;;;4.36;100.00;101848.97;5163527;27;20135;-78
2023/12/14 08:55:33;;;;;;;6.80;5.68;;;;;;;4.37;99.81;101861.03;5159737;27;20051;-78
2023/12/14 08:58:00;;;;;;;6.70;6.05;;;;;;;4.39;100.00;101858.78;5164863;27;20035;-78
2023/12/14 09:00:27;;;;;;;6.63;5.93;;;;;;;4.42;100.00;101858.03;5163149;27;20104;-78
2023/12/14 09:02:53;;;;;;;8.98;6.32;;;;;;;4.42;100.00;101863.31;5162404;27;20082;-78
2023/12/14 09:05:20;;;;;;;5.75;5.25;;;;;;;4.45;100.00;101872.34;5165121;27;20039;-79
2023/12/14 09:07:47;;;;;;;8.75;5.53;;;;;;;4.47;100.00;101878.00;5166539;27;20066;-79
2023/12/14 09:10:14;;;;;;;8.05;6.30;;;;;;;4.48;100.00;101876.88;5163517;27;20042;-79
2023/12/14 09:12:40;;;;;;;7.30;6.25;;;;;;;4.47;100.00;101878.00;5163211;27;20052;-78
2023/12/14 09:15:07;;;;;;;8.45;5.82;;;;;;;4.48;100.00;101887.44;5163685;27;21182;-78
2023/12/14 09:17:34;;;;;;;8.30;6.65;;;;;;;4.50;100.00;101882.56;5164588;27;20042;-78
2023/12/14 09:20:06;;;;;;;9.32;6.60;;;;;;;4.51;100.00;101892.72;5163960;27;20086;-78
2023/12/14 09:22:33;;;;;;;9.23;6.50;;;;;;;4.51;99.99;101899.88;5161757;27;20505;-78
2023/12/14 09:25:00;;;;;;;7.05;5.43;;;;;;;4.52;99.58;101904.78;5161048;27;20039;-78
2023/12/14 09:27:26;;;;;;;8.10;5.88;;;;;;;4.53;99.93;101908.94;5164692;27;20057;-79
2023/12/14 09:29:53;;;;;;;8.38;6.63;;;;;;;4.54;99.78;101905.19;5163187;27;20562;-78
2023/12/14 09:32:20;;;;;;;8.32;6.22;;;;;;;4.57;99.61;101911.59;5161798;27;20042;-79
2023/12/14 09:34:46;;;;;;;7.78;5.97;;;;;;;4.58;99.47;101910.47;5162428;27;20467;-78
2023/12/14 09:37:14;;;;;;;7.47;6.13;;;;;;;4.59;99.47;101914.63;5158719;27;20146;-77
2023/12/14 09:39:40;;;;;;;9.65;6.45;;;;;;;4.63;99.59;101915.41;5169007;27;20074;-76
2023/12/14 09:42:08;;;;;;;6.63;6.00;;;;;;;4.65;99.47;101921.06;5154388;27;20114;-75
2023/12/14 09:44:36;;;;;;;6.68;5.97;;;;;;;4.68;99.58;101928.25;5154762;27;20885;-76
2023/12/14 09:47:05;;;;;;;9.93;6.82;;;;;;;4.71;99.69;101930.16;5157012;27;20043;-76
2023/12/14 09:49:32;;;;;;;6.78;6.07;;;;;;;4.69;99.27;101940.31;5158669;27;20039;-77
2023/12/14 09:51:59;;;;;;;7.18;5.93;;;;;;;4.69;99.44;101942.94;5161464;27;20573;-77
2023/12/14 09:54:27;;;;;;;9.40;6.50;;;;;;;4.69;98.79;101948.97;5162127;27;20134;-78
2023/12/14 09:56:54;;;;;;;7.45;6.13;;;;;;;4.69;98.25;101954.25;5164186;27;20039;-78
2023/12/14 09:59:21;;;;;;;9.65;6.70;;;;;;;4.70;98.43;101960.28;5161282;27;20054;-78
2023/12/14 10:01:48;;;;;;;8.23;6.80;;;;;;;4.70;98.31;101968.19;5145334;27;20043;-78
2023/12/14 10:04:17;;;;;;;10.10;5.60;;;;;;;4.72;98.64;101976.50;5161065;27;20035;-78
2023/12/14 10:06:46;;;;;;;7.38;6.20;;;;;;;4.74;97.87;101984.06;5157640;27;20035;-78
2023/12/14 10:09:15;;;;;;;9.95;5.35;;;;;;;4.78;97.77;101982.19;5161697;27;20737;-78
2023/12/14 10:11:43;;;;;;;7.90;5.75;;;;;;;4.81;97.28;101987.47;5161289;27;20077;-77
2023/12/14 10:14:25;;;;;;;6.43;5.75;;;;;;;4.87;97.57;101993.16;5156504;27;20042;-77
2023/12/14 10:16:52;;;;;;;5.22;4.72;;;;;;;4.91;97.09;101988.66;5134969;27;20104;-77
2023/12/14 10:19:28;;;;;;;6.15;5.07;;;;;;;4.94;96.45;101975.47;5154458;27;20051;-78
2023/12/14 10:21:55;;;;;;;7.70;5.55;;;;;;;4.99;96.44;101984.91;5158234;27;20502;-78
2023/12/14 10:24:22;;;;;;;8.50;5.40;;;;;;;5.04;95.57;101987.22;5157299;27;20122;-77
2023/12/14 10:26:50;;;;;;;6.30;5.45;;;;;;;5.12;95.54;101982.72;5156926;27;20047;-77
2023/12/14 10:29:17;;;;;;;9.02;5.28;;;;;;;5.20;95.34;101982.34;5151807;27;20547;-77
2023/12/14 10:31:44;;;;;;;6.28;5.68;;;;;;;5.27;94.62;101992.19;5139888;27;20074;-77
2023/12/14 10:34:12;;;;;;;5.90;5.00;;;;;;;5.36;95.34;101989.97;5157679;27;21100;-77
2023/12/14 10:36:40;;;;;;;6.38;5.65;;;;;;;5.42;94.99;101993.75;5157142;27;20416;-77
2023/12/14 10:39:11;;;;;;;5.93;5.43;;;;;;;5.44;94.64;101998.66;5158699;27;20039;-78
2023/12/14 10:41:39;;;;;;;9.73;6.30;;;;;;;5.45;93.73;101985.09;5158226;27;20041;-77
2023/12/14 10:44:07;;;;;;;6.65;5.85;;;;;;;5.48;93.44;101988.88;5158630;27;21678;-77
2023/12/14 10:46:58;;;;;;;6.68;5.72;;;;;;;5.50;93.34;101987.38;5158598;27;20035;-77
2023/12/14 10:49:25;;;;;;;6.80;6.05;;;;;;;5.51;93.25;101996.03;5157325;27;20814;-78
2023/12/14 10:51:56;;;;;;;7.70;5.90;;;;;;;5.51;92.60;101988.88;5134997;27;20079;-77
2023/12/14 10:54:26;;;;;;;10.67;6.17;;;;;;;5.55;92.71;101997.56;5153531;27;20084;-78
2023/12/14 10:56:56;;;;;;;9.85;6.28;;;;;;;5.58;92.91;101996.81;5153069;27;20401;-78
2023/12/14 10:59:26;;;;;;;8.15;6.10;;;;;;;5.60;93.19;101999.81;5150919;27;20051;-78
2023/12/14 11:01:54;;;;;;;5.63;5.13;;;;;;;5.63;92.30;101999.06;5155590;27;20505;-78
2023/12/14 11:04:22;;;;;;;10.60;5.57;;;;;;;5.64;91.66;101997.94;5153118;27;20047;-78
2023/12/14 11:06:49;;;;;;;7.05;5.22;;;;;;;5.64;91.51;102005.88;5164852;27;20031;-77
2023/12/14 11:09:18;;;;;;;6.50;5.70;;;;;;;5.64;91.29;102008.50;5164660;27;20134;-77
2023/12/14 11:11:57;;;;;;;7.30;5.45;;;;;;;5.66;91.85;102014.19;5176182;27;20097;-79
2023/12/14 11:14:27;;;;;;;7.85;6.13;;;;;;;5.65;91.05;102014.56;5158121;27;20046;-79
2023/12/14 11:16:55;;;;;;;8.75;6.20;;;;;;;5.68;90.73;102027.00;5196409;27;20044;-79
2023/12/14 11:19:22;;;;;;;7.28;5.13;;;;;;;5.72;91.09;102032.31;5189028;27;20049;-79
2023/12/14 11:22:09;;;;;;;8.60;6.15;;;;;;;5.73;91.02;102025.91;5172982;27;20035;-79
2023/12/14 11:24:35;;;;;;;6.68;5.53;;;;;;;5.74;90.60;102033.44;5190505;27;20072;-77